Time;durP1;ratioP1;P1;durP2;ratioP2;P2;SDS_P1;SDS_P2;PMS_P1;PMS_P2;Temp;Humidity;BMP_temperature;BMP_pressure;BME280_temperature;BME280_humidity;BME280_pressure;Samples;Min_cycle;Max_cycle;Signal;HPM_P1;HPM_P2
2022/02/27 00:00:34;;;;;;;14.80;10.27;;;;;;;;;;10539128;28;20488;-60
2022/02/27 00:05:34;;;;;;;14.00;10.45;;;;;;;;;;10539022;28;20165;-61
2022/02/27 00:10:35;;;;;;;15.40;9.90;;;;;;;;;;10539452;28;20024;-60
2022/02/27 00:15:35;;;;;;;20.40;11.63;;;;;;;;;;10538581;28;20055;-61
2022/02/27 00:20:36;;;;;;;20.52;9.63;;;;;;;;;;10538543;28;20947;-60
2022/02/27 00:25:36;;;;;;;19.10;10.53;;;;;;;;;;10538101;28;20491;-60
2022/02/27 00:30:37;;;;;;;18.43;10.30;;;;;;;;;;10534540;28;20421;-60
2022/02/27 00:35:39;;;;;;;18.73;10.27;;;;;;;;;;10535063;28;20110;-60
2022/02/27 00:40:40;;;;;;;18.58;10.45;;;;;;;;;;10538309;28;20043;-59
2022/02/27 00:45:40;;;;;;;17.70;10.20;;;;;;;;;;10537229;28;20028;-59
2022/02/27 00:50:40;;;;;;;15.00;9.90;;;;;;;;;;10537901;28;20432;-60
2022/02/27 00:55:41;;;;;;;19.53;9.27;;;;;;;;;;10537705;28;20028;-59
2022/02/27 01:00:41;;;;;;;13.73;9.02;;;;;;;;;;10536429;28;20051;-60
2022/02/27 01:05:42;;;;;;;15.83;8.80;;;;;;;;;;10535565;28;20032;-58
2022/02/27 01:10:42;;;;;;;15.27;8.93;;;;;;;;;;10536951;28;20444;-59
2022/02/27 01:15:42;;;;;;;14.60;8.80;;;;;;;;;;10536767;28;20040;-59
2022/02/27 01:20:43;;;;;;;15.10;8.90;;;;;;;;;;10536658;28;20966;-58
2022/02/27 01:25:43;;;;;;;13.57;9.70;;;;;;;;;;10536328;28;20038;-60
2022/02/27 01:30:44;;;;;;;11.77;8.87;;;;;;;;;;10536275;28;20479;-59
2022/02/27 01:35:44;;;;;;;15.07;9.02;;;;;;;;;;10532857;28;20521;-59
2022/02/27 01:40:44;;;;;;;14.13;8.73;;;;;;;;;;10533080;28;20020;-59
2022/02/27 01:45:47;;;;;;;14.73;9.32;;;;;;;;;;10535143;28;21185;-59
2022/02/27 01:50:48;;;;;;;11.85;8.25;;;;;;;;;;10535440;28;20420;-60
2022/02/27 01:55:48;;;;;;;10.98;7.80;;;;;;;;;;10535154;28;20118;-60
2022/02/27 02:00:49;;;;;;;12.03;8.07;;;;;;;;;;10534948;28;20071;-59
2022/02/27 02:05:49;;;;;;;14.75;8.63;;;;;;;;;;10534818;28;21011;-58
2022/02/27 02:10:50;;;;;;;12.82;8.30;;;;;;;;;;10534678;28;20111;-57
2022/02/27 02:15:57;;;;;;;11.43;8.30;;;;;;;;;;10534875;28;20020;-60
2022/02/27 02:20:58;;;;;;;11.90;7.10;;;;;;;;;;10534913;28;20456;-58
2022/02/27 02:26:02;;;;;;;13.07;7.20;;;;;;;;;;10534024;28;20035;-57
2022/02/27 02:31:02;;;;;;;14.15;7.70;;;;;;;;;;10533952;28;20461;-58
2022/02/27 02:36:05;;;;;;;10.97;8.07;;;;;;;;;;10533769;28;20458;-59
2022/02/27 02:41:06;;;;;;;11.57;7.53;;;;;;;;;;10527095;28;20475;-61
2022/02/27 02:46:06;;;;;;;11.70;8.27;;;;;;;;;;10533712;28;20032;-60
2022/02/27 02:51:06;;;;;;;10.60;7.53;;;;;;;;;;10533433;28;20020;-59
2022/02/27 02:56:08;;;;;;;12.53;7.60;;;;;;;;;;10533147;28;20496;-61
2022/02/27 03:01:18;;;;;;;16.20;7.40;;;;;;;;;;10532836;28;20048;-58
2022/02/27 03:06:19;;;;;;;12.85;7.10;;;;;;;;;;10532991;28;20028;-57
2022/02/27 03:11:19;;;;;;;14.10;7.30;;;;;;;;;;10532905;28;20103;-59
2022/02/27 03:16:20;;;;;;;9.95;7.05;;;;;;;;;;10532854;28;20349;-59
2022/02/27 03:21:20;;;;;;;10.13;7.20;;;;;;;;;;10533372;28;20024;-60
2022/02/27 03:26:22;;;;;;;10.33;6.47;;;;;;;;;;10532709;28;20467;-60
2022/02/27 03:31:23;;;;;;;7.93;6.38;;;;;;;;;;10533047;28;20496;-60
2022/02/27 03:36:23;;;;;;;9.80;6.90;;;;;;;;;;10533077;28;20417;-62
2022/02/27 03:41:23;;;;;;;10.40;6.60;;;;;;;;;;10529787;28;20028;-60
2022/02/27 03:46:24;;;;;;;9.07;6.67;;;;;;;;;;10532361;28;20052;-59
2022/02/27 03:51:24;;;;;;;13.40;6.93;;;;;;;;;;10529033;28;20437;-59
2022/02/27 03:56:24;;;;;;;9.40;6.40;;;;;;;;;;10532165;28;20052;-59
2022/02/27 04:01:26;;;;;;;8.15;6.10;;;;;;;;;;10531783;28;20575;-60
2022/02/27 04:06:27;;;;;;;9.93;6.68;;;;;;;;;;10533597;28;20174;-59
2022/02/27 04:11:27;;;;;;;10.98;6.28;;;;;;;;;;10539971;28;20074;-59
2022/02/27 04:16:28;;;;;;;8.48;5.97;;;;;;;;;;10539194;28;20557;-58
2022/02/27 04:21:29;;;;;;;9.93;6.70;;;;;;;;;;10538954;28;20020;-59
2022/02/27 04:26:29;;;;;;;7.95;5.78;;;;;;;;;;10539217;28;20975;-58
2022/02/27 04:31:29;;;;;;;9.10;6.32;;;;;;;;;;10538646;28;20163;-58
2022/02/27 04:36:30;;;;;;;9.05;5.95;;;;;;;;;;10538966;28;20028;-60
2022/02/27 04:41:31;;;;;;;7.53;5.50;;;;;;;;;;10538772;28;20024;-58
2022/02/27 04:46:31;;;;;;;6.38;5.22;;;;;;;;;;10537978;28;20028;-60
2022/02/27 04:51:31;;;;;;;7.93;5.63;;;;;;;;;;10534573;28;20541;-59
2022/02/27 04:56:32;;;;;;;6.67;5.00;;;;;;;;;;10537697;28;20448;-59
2022/02/27 05:01:32;;;;;;;8.98;5.65;;;;;;;;;;10534271;28;20441;-56
2022/02/27 05:06:33;;;;;;;9.57;5.73;;;;;;;;;;10536988;28;20039;-60
2022/02/27 05:11:34;;;;;;;8.63;5.55;;;;;;;;;;10537456;28;20772;-60
2022/02/27 05:16:34;;;;;;;6.90;5.33;;;;;;;;;;10536822;28;20028;-60
2022/02/27 05:21:35;;;;;;;8.75;5.53;;;;;;;;;;10536951;28;20467;-60
2022/02/27 05:26:35;;;;;;;7.78;5.32;;;;;;;;;;10536354;28;20024;-60
2022/02/27 05:31:36;;;;;;;7.07;5.00;;;;;;;;;;10536301;28;20125;-60
2022/02/27 05:36:36;;;;;;;5.60;4.83;;;;;;;;;;10536414;28;20024;-60
2022/02/27 05:41:37;;;;;;;8.45;5.15;;;;;;;;;;10535955;28;20173;-60
2022/02/27 05:46:37;;;;;;;5.40;4.68;;;;;;;;;;10535577;28;20032;-61
2022/02/27 05:51:38;;;;;;;6.40;4.80;;;;;;;;;;10535286;28;20024;-60
2022/02/27 05:56:38;;;;;;;6.50;4.70;;;;;;;;;;10534989;28;20024;-59
2022/02/27 06:01:38;;;;;;;6.32;4.85;;;;;;;;;;10532005;28;20417;-59
2022/02/27 06:06:39;;;;;;;11.13;4.90;;;;;;;;;;10531510;28;20020;-60
2022/02/27 06:11:39;;;;;;;7.30;4.97;;;;;;;;;;10534548;28;20429;-58
2022/02/27 06:16:40;;;;;;;6.10;4.88;;;;;;;;;;10534916;28;20059;-62
2022/02/27 06:21:40;;;;;;;6.67;4.60;;;;;;;;;;10534242;28;20020;-59
2022/02/27 06:26:40;;;;;;;6.33;4.73;;;;;;;;;;10534108;28;20546;-60
2022/02/27 06:31:41;;;;;;;5.82;4.50;;;;;;;;;;10533993;28;20032;-58
2022/02/27 06:36:41;;;;;;;9.40;4.13;;;;;;;;;;10533902;28;20028;-60
2022/02/27 06:41:41;;;;;;;6.90;4.63;;;;;;;;;;10533725;28;20453;-60
2022/02/27 06:46:42;;;;;;;4.77;3.83;;;;;;;;;;10533934;28;20028;-60
2022/02/27 06:51:42;;;;;;;4.97;3.70;;;;;;;;;;10533085;28;20028;-58
2022/02/27 06:56:43;;;;;;;5.88;4.30;;;;;;;;;;10533033;28;20036;-60
2022/02/27 07:01:43;;;;;;;6.03;4.13;;;;;;;;;;10533350;28;20107;-58
2022/02/27 07:06:43;;;;;;;5.30;3.90;;;;;;;;;;10526406;28;20319;-59
2022/02/27 07:11:44;;;;;;;6.87;3.80;;;;;;;;;;10533660;28;20497;-57
2022/02/27 07:16:44;;;;;;;5.27;3.87;;;;;;;;;;10532803;28;20441;-56
2022/02/27 07:21:45;;;;;;;6.60;4.65;;;;;;;;;;10532695;28;21065;-58
2022/02/27 07:26:45;;;;;;;5.67;4.30;;;;;;;;;;10532994;28;20021;-59
2022/02/27 07:31:46;;;;;;;4.80;3.80;;;;;;;;;;10532636;28;20880;-59
2022/02/27 07:36:49;;;;;;;5.75;4.00;;;;;;;;;;10532303;28;20062;-59
2022/02/27 07:41:50;;;;;;;5.50;4.00;;;;;;;;;;10534831;28;20104;-59
2022/02/27 07:46:51;;;;;;;4.75;3.95;;;;;;;;;;10540749;28;20353;-62
2022/02/27 07:51:52;;;;;;;5.90;4.00;;;;;;;;;;10540029;28;20466;-62
2022/02/27 07:56:52;;;;;;;9.82;3.72;;;;;;;;;;10538683;28;20109;-62
2022/02/27 08:01:53;;;;;;;14.32;4.38;;;;;;;;;;10539150;28;20027;-61
2022/02/27 08:06:53;;;;;;;18.30;4.30;;;;;;;;;;10536380;28;20062;-63
2022/02/27 08:11:53;;;;;;;7.30;3.70;;;;;;;;;;10538595;28;20524;-61
2022/02/27 08:16:54;;;;;;;9.97;4.20;;;;;;;;;;10535748;28;21024;-62
2022/02/27 08:21:54;;;;;;;14.70;4.35;;;;;;;;;;10537867;28;20384;-62
2022/02/27 08:26:55;;;;;;;6.37;4.00;;;;;;;;;;10536460;28;20031;-63
2022/02/27 08:31:55;;;;;;;7.33;3.80;;;;;;;;;;10538155;28;20546;-63
2022/02/27 08:39:59;;;;;;;9.10;3.97;;;;;;;;;;10657747;27;20543;-63
2022/02/27 08:45:00;;;;;;;6.55;3.88;;;;;;;;;;10654209;27;20034;-63
2022/02/27 08:50:00;;;;;;;15.10;7.15;;;;;;;;;;10651957;27;20047;-63
2022/02/27 08:55:00;;;;;;;32.05;17.65;;;;;;;;;;10652992;27;20026;-62
2022/02/27 09:00:02;;;;;;;38.57;20.17;;;;;;;;;;10650110;27;20045;-62
2022/02/27 09:05:03;;;;;;;44.17;23.52;;;;;;;;;;10649070;27;20549;-63
2022/02/27 09:10:04;;;;;;;47.25;26.23;;;;;;;;;;10652889;27;20038;-62
2022/02/27 09:15:05;;;;;;;47.53;28.58;;;;;;;;;;10650960;27;20023;-63
2022/02/27 09:20:08;;;;;;;50.47;29.67;;;;;;;;;;10650209;27;20019;-62
2022/02/27 09:25:09;;;;;;;62.72;33.15;;;;;;;;;;10653379;27;20019;-62
2022/02/27 09:30:12;;;;;;;60.22;34.92;;;;;;;;;;10649993;27;20031;-62
2022/02/27 09:35:13;;;;;;;61.00;35.00;;;;;;;;;;10651935;27;20031;-62
2022/02/27 09:40:13;;;;;;;85.95;49.65;;;;;;;;;;10652027;27;20031;-61
2022/02/27 09:45:15;;;;;;;98.97;55.53;;;;;;;;;;10652689;27;20042;-62
2022/02/27 09:50:16;;;;;;;86.45;48.08;;;;;;;;;;10629274;27;20432;-61
2022/02/27 09:55:18;;;;;;;97.60;54.13;;;;;;;;;;10622053;27;20378;-61
2022/02/27 10:00:19;;;;;;;91.63;53.28;;;;;;;;;;10622587;27;20020;-61
2022/02/27 10:05:24;;;;;;;78.60;46.38;;;;;;;;;;10604598;27;20038;-62
2022/02/27 10:10:24;;;;;;;108.53;65.30;;;;;;;;;;10622712;27;20031;-62
2022/02/27 10:15:25;;;;;;;105.22;60.67;;;;;;;;;;10621136;27;20019;-60
2022/02/27 10:20:26;;;;;;;106.22;61.92;;;;;;;;;;10619199;27;20111;-60
2022/02/27 10:25:28;;;;;;;108.90;64.18;;;;;;;;;;10617441;27;20092;-62
2022/02/27 10:30:29;;;;;;;104.72;62.67;;;;;;;;;;10619503;27;20321;-61
2022/02/27 10:35:53;;;;;;;118.47;71.03;;;;;;;;;;10619841;27;20062;-60
2022/02/27 10:40:54;;;;;;;114.10;69.07;;;;;;;;;;10603461;27;20027;-60
2022/02/27 10:46:03;;;;;;;103.30;62.40;;;;;;;;;;10618980;27;20027;-61
2022/02/27 10:51:08;;;;;;;111.35;68.28;;;;;;;;;;10621146;27;20023;-61
2022/02/27 10:56:16;;;;;;;114.97;67.75;;;;;;;;;;10621038;27;20031;-61
2022/02/27 11:01:21;;;;;;;126.68;78.05;;;;;;;;;;10618753;27;20462;-61
2022/02/27 11:06:22;;;;;;;107.30;66.55;;;;;;;;;;10620231;27;20027;-61
2022/02/27 11:11:23;;;;;;;109.30;67.03;;;;;;;;;;10621154;27;20447;-61
2022/02/27 11:16:25;;;;;;;122.85;74.30;;;;;;;;;;10621257;27;20293;-60
2022/02/27 11:21:25;;;;;;;109.93;67.55;;;;;;;;;;10617697;27;20027;-61
2022/02/27 11:26:25;;;;;;;120.45;70.18;;;;;;;;;;10612485;27;20511;-61
2022/02/27 11:31:26;;;;;;;141.15;83.25;;;;;;;;;;10598950;27;20035;-60
2022/02/27 11:36:26;;;;;;;114.45;68.75;;;;;;;;;;10599799;27;20042;-60
2022/02/27 11:41:46;;;;;;;114.77;70.83;;;;;;;;;;10618988;27;20035;-61
2022/02/27 11:46:46;;;;;;;120.85;71.82;;;;;;;;;;10618148;27;20436;-61
2022/02/27 11:51:51;;;;;;;121.97;71.72;;;;;;;;;;10618734;27;20030;-62
2022/02/27 11:56:57;;;;;;;115.68;70.38;;;;;;;;;;10617262;27;20115;-62
2022/02/27 12:01:57;;;;;;;113.60;67.03;;;;;;;;;;10600222;27;20027;-62
2022/02/27 12:07:02;;;;;;;113.60;61.45;;;;;;;;;;10618256;27;20025;-63
2022/02/27 12:12:03;;;;;;;73.50;44.03;;;;;;;;;;10618569;27;20035;-61
2022/02/27 12:17:03;;;;;;;80.78;48.80;;;;;;;;;;10599821;27;20096;-61
2022/02/27 12:22:04;;;;;;;75.00;44.60;;;;;;;;;;10618095;27;20386;-61
2022/02/27 12:27:05;;;;;;;80.37;46.07;;;;;;;;;;10614548;27;20055;-61
2022/02/27 12:32:08;;;;;;;74.00;43.35;;;;;;;;;;10614820;27;20030;-61
2022/02/27 12:37:10;;;;;;;76.15;41.80;;;;;;;;;;10617585;27;20304;-61
2022/02/27 12:42:12;;;;;;;81.35;41.85;;;;;;;;;;10616652;28;20033;-61
2022/02/27 12:47:15;;;;;;;66.28;38.67;;;;;;;;;;10617013;27;20080;-61
2022/02/27 12:52:18;;;;;;;65.72;37.08;;;;;;;;;;10617119;28;20130;-61
2022/02/27 12:57:18;;;;;;;62.60;35.15;;;;;;;;;;10598099;27;20032;-61
2022/02/27 13:02:24;;;;;;;61.20;35.53;;;;;;;;;;10616990;28;20030;-61
2022/02/27 13:07:26;;;;;;;58.72;34.88;;;;;;;;;;10617227;27;20462;-61
2022/02/27 13:12:28;;;;;;;57.42;33.78;;;;;;;;;;10614442;28;20019;-61
2022/02/27 13:17:31;;;;;;;64.43;35.53;;;;;;;;;;10616359;27;20023;-61
2022/02/27 13:22:34;;;;;;;52.95;32.55;;;;;;;;;;10614356;27;20023;-61
2022/02/27 13:27:41;;;;;;;51.72;30.95;;;;;;;;;;10622812;27;20038;-60
2022/02/27 13:32:44;;;;;;;57.78;30.63;;;;;;;;;;10621699;27;20047;-61
2022/02/27 13:38:03;;;;;;;49.97;29.25;;;;;;;;;;10623588;27;20042;-60
2022/02/27 13:43:12;;;;;;;47.80;27.20;;;;;;;;;;10623945;27;20076;-60
2022/02/27 13:48:15;;;;;;;46.72;28.10;;;;;;;;;;10623756;27;20030;-61
2022/02/27 13:53:17;;;;;;;44.85;27.00;;;;;;;;;;10623782;27;20019;-61
2022/02/27 13:58:26;;;;;;;43.13;24.70;;;;;;;;;;10623115;27;20031;-60
2022/02/27 14:03:36;;;;;;;;;;;;;;;;;;10624467;27;20035;-62
2022/02/27 14:08:38;;;;;;;41.50;23.48;;;;;;;;;;10623169;27;20385;-62
2022/02/27 14:13:42;;;;;;;33.42;22.52;;;;;;;;;;10622967;27;20485;-61
2022/02/27 14:18:42;;;;;;;37.20;22.83;;;;;;;;;;10622808;27;20031;-61
2022/02/27 14:23:54;;;;;;;33.83;21.17;;;;;;;;;;10623150;27;20015;-60
2022/02/27 14:29:00;;;;;;;36.13;21.33;;;;;;;;;;10622517;27;20031;-61
2022/02/27 14:34:11;;;;;;;31.80;19.15;;;;;;;;;;10622448;27;20034;-62
2022/02/27 14:39:14;;;;;;;31.95;19.40;;;;;;;;;;10618108;27;20108;-62
2022/02/27 14:44:15;;;;;;;28.58;18.65;;;;;;;;;;10618839;27;20084;-60
2022/02/27 14:49:15;;;;;;;33.13;18.35;;;;;;;;;;10621383;27;20019;-61
2022/02/27 14:54:16;;;;;;;31.90;19.17;;;;;;;;;;10621658;27;20019;-61
2022/02/27 14:59:17;;;;;;;27.37;18.03;;;;;;;;;;10621133;27;20105;-61
2022/02/27 15:04:18;;;;;;;30.20;18.05;;;;;;;;;;10621253;27;20023;-61
2022/02/27 15:09:18;;;;;;;21.30;14.67;;;;;;;;;;10621355;27;20042;-60
2022/02/27 15:14:18;;;;;;;26.13;15.90;;;;;;;;;;10620737;27;20434;-61
2022/02/27 15:19:19;;;;;;;28.93;16.60;;;;;;;;;;10619165;27;20048;-60
2022/02/27 15:24:19;;;;;;;24.77;15.23;;;;;;;;;;10620279;27;20030;-61
2022/02/27 15:29:20;;;;;;;22.80;14.20;;;;;;;;;;10619785;27;20462;-59
2022/02/27 15:34:20;;;;;;;24.70;15.23;;;;;;;;;;10619930;27;20535;-60
2022/02/27 15:39:20;;;;;;;22.70;14.20;;;;;;;;;;10619021;27;20506;-63
2022/02/27 15:44:21;;;;;;;22.63;14.33;;;;;;;;;;10616122;27;20023;-60
2022/02/27 15:49:21;;;;;;;23.65;13.45;;;;;;;;;;10614443;27;20431;-61
2022/02/27 15:54:22;;;;;;;27.33;14.30;;;;;;;;;;10618890;27;20035;-60
2022/02/27 15:59:23;;;;;;;18.25;12.65;;;;;;;;;;10619153;27;20034;-61
2022/02/27 16:04:24;;;;;;;19.27;12.68;;;;;;;;;;10617679;27;20031;-61
2022/02/27 16:09:24;;;;;;;16.25;11.30;;;;;;;;;;10617917;27;20031;-62
2022/02/27 16:14:25;;;;;;;20.92;12.10;;;;;;;;;;10616839;27;20088;-61
2022/02/27 16:19:29;;;;;;;24.00;11.50;;;;;;;;;;10616246;27;20114;-61
2022/02/27 16:24:29;;;;;;;19.40;11.70;;;;;;;;;;10616630;27;20424;-61
2022/02/27 16:29:30;;;;;;;16.50;10.82;;;;;;;;;;10616809;27;20023;-61
2022/02/27 16:34:31;;;;;;;17.73;11.10;;;;;;;;;;10599399;27;20036;-61
2022/02/27 16:39:31;;;;;;;14.88;9.10;;;;;;;;;;10616478;27;20475;-61
2022/02/27 16:44:32;;;;;;;14.07;9.77;;;;;;;;;;10617594;28;20092;-61
2022/02/27 16:49:34;;;;;;;15.45;9.00;;;;;;;;;;10613883;27;20411;-61
2022/02/27 16:54:35;;;;;;;13.05;8.98;;;;;;;;;;10613396;28;20106;-60
2022/02/27 16:59:42;;;;;;;13.33;7.67;;;;;;;;;;10621082;27;20031;-61
2022/02/27 17:04:43;;;;;;;11.68;8.13;;;;;;;;;;10625090;27;20462;-61
2022/02/27 17:09:43;;;;;;;12.27;7.77;;;;;;;;;;10625242;27;20030;-61
2022/02/27 17:14:43;;;;;;;13.27;8.27;;;;;;;;;;10624510;27;20442;-61
2022/02/27 17:19:44;;;;;;;11.30;7.67;;;;;;;;;;10624173;27;20023;-61
2022/02/27 17:24:45;;;;;;;11.35;7.57;;;;;;;;;;10606177;27;20438;-61
2022/02/27 17:29:45;;;;;;;10.88;7.55;;;;;;;;;;10624540;27;20126;-61
2022/02/27 17:34:45;;;;;;;12.33;8.27;;;;;;;;;;10624106;27;20035;-61
2022/02/27 17:39:46;;;;;;;12.83;7.07;;;;;;;;;;10624077;27;20479;-61
2022/02/27 17:44:46;;;;;;;8.90;6.70;;;;;;;;;;10624374;27;20156;-61
2022/02/27 17:49:46;;;;;;;10.77;7.73;;;;;;;;;;10623645;27;20035;-61
2022/02/27 17:54:47;;;;;;;12.80;7.23;;;;;;;;;;10616679;27;20060;-60
2022/02/27 17:59:48;;;;;;;9.90;7.35;;;;;;;;;;10623106;27;20024;-57
2022/02/27 18:04:48;;;;;;;10.20;7.00;;;;;;;;;;10621886;27;20462;-62
2022/02/27 18:09:49;;;;;;;10.90;6.93;;;;;;;;;;10620431;27;20027;-61
2022/02/27 18:14:52;;;;;;;10.32;6.93;;;;;;;;;;10620543;27;20520;-61
2022/02/27 18:19:53;;;;;;;12.50;7.13;;;;;;;;;;10621249;27;20112;-64
2022/02/27 18:24:53;;;;;;;11.20;6.65;;;;;;;;;;10622012;27;20054;-62
2022/02/27 18:29:54;;;;;;;11.18;6.55;;;;;;;;;;10619943;27;20027;-64
2022/02/27 18:34:54;;;;;;;10.63;6.00;;;;;;;;;;10620345;27;20047;-63
2022/02/27 18:39:55;;;;;;;9.85;6.70;;;;;;;;;;10620841;27;20126;-63
2022/02/27 18:44:55;;;;;;;9.80;6.15;;;;;;;;;;10621552;27;20030;-62
2022/02/27 18:49:56;;;;;;;8.47;5.93;;;;;;;;;;10621075;27;20038;-61
2022/02/27 18:54:56;;;;;;;9.20;5.73;;;;;;;;;;10617582;27;20820;-58
2022/02/27 18:59:56;;;;;;;8.37;6.53;;;;;;;;;;10616486;27;20398;-58
2022/02/27 19:04:57;;;;;;;9.77;6.07;;;;;;;;;;10620200;27;20431;-55
2022/02/27 19:09:57;;;;;;;14.57;6.13;;;;;;;;;;10619909;27;20019;-59
2022/02/27 19:14:57;;;;;;;11.77;6.30;;;;;;;;;;10619555;27;20087;-56
2022/02/27 19:19:58;;;;;;;12.73;6.57;;;;;;;;;;10619705;27;20037;-58
2022/02/27 19:24:59;;;;;;;9.48;6.03;;;;;;;;;;10619639;27;20153;-58
2022/02/27 19:29:59;;;;;;;13.88;6.40;;;;;;;;;;10617866;27;20108;-59
2022/02/27 19:34:59;;;;;;;15.93;6.00;;;;;;;;;;10617210;27;20038;-57
2022/02/27 19:40:01;;;;;;;14.17;5.87;;;;;;;;;;10618454;27;20057;-58
2022/02/27 19:45:03;;;;;;;9.45;5.88;;;;;;;;;;10618378;27;20771;-56
2022/02/27 19:50:04;;;;;;;12.90;6.18;;;;;;;;;;10618456;27;20117;-52
2022/02/27 19:55:07;;;;;;;16.23;6.25;;;;;;;;;;10618011;27;20567;-61
2022/02/27 20:00:10;;;;;;;12.43;6.20;;;;;;;;;;10615599;27;20060;-57
2022/02/27 20:05:11;;;;;;;15.27;5.93;;;;;;;;;;10614960;27;20511;-59
2022/02/27 20:15:31;;;;;;;10.80;6.43;;;;;;;;;;10617265;27;20023;-56
2022/02/27 20:20:31;;;;;;;14.17;6.53;;;;;;;;;;10617259;27;20023;-59
2022/02/27 20:25:32;;;;;;;10.80;5.93;;;;;;;;;;10598536;27;20106;-60
2022/02/27 20:30:33;;;;;;;11.95;6.75;;;;;;;;;;10617558;27;20235;-59
2022/02/27 20:35:34;;;;;;;13.35;6.57;;;;;;;;;;10616243;27;20455;-60
2022/02/27 20:40:36;;;;;;;9.88;6.35;;;;;;;;;;10616649;28;20019;-59
2022/02/27 20:45:36;;;;;;;13.73;6.60;;;;;;;;;;10616608;27;20027;-60
2022/02/27 20:50:37;;;;;;;17.20;7.27;;;;;;;;;;10615946;28;20016;-61
2022/02/27 20:55:37;;;;;;;21.63;8.25;;;;;;;;;;10615669;27;20459;-56
2022/02/27 21:00:38;;;;;;;17.83;7.63;;;;;;;;;;10615065;28;20020;-59
2022/02/27 21:05:38;;;;;;;18.65;7.40;;;;;;;;;;10612581;27;20419;-63
2022/02/27 21:10:40;;;;;;;11.43;6.82;;;;;;;;;;10613189;28;20152;-62
2022/02/27 21:15:40;;;;;;;13.70;6.78;;;;;;;;;;10597406;27;20023;-62
2022/02/27 21:20:45;;;;;;;23.33;7.88;;;;;;;;;;10597734;28;20481;-63
2022/02/27 21:25:45;;;;;;;17.42;6.97;;;;;;;;;;10616707;27;20054;-59
2022/02/27 21:30:45;;;;;;;18.40;7.97;;;;;;;;;;10597800;28;20156;-64
2022/02/27 21:35:46;;;;;;;15.75;7.57;;;;;;;;;;10613968;27;20041;-62
2022/02/27 21:40:47;;;;;;;14.57;6.97;;;;;;;;;;10615452;28;20015;-62
2022/02/27 21:45:48;;;;;;;19.35;7.25;;;;;;;;;;10620377;27;20133;-62
2022/02/27 21:50:48;;;;;;;15.45;7.28;;;;;;;;;;10622783;27;20096;-61
2022/02/27 21:55:49;;;;;;;14.05;6.90;;;;;;;;;;10622791;27;20246;-60
2022/02/27 22:00:50;;;;;;;20.50;7.40;;;;;;;;;;10622511;27;20364;-61
2022/02/27 22:05:50;;;;;;;17.23;6.78;;;;;;;;;;10622322;27;20030;-53
2022/02/27 22:10:51;;;;;;;14.93;6.57;;;;;;;;;;10618763;27;20269;-56
2022/02/27 22:15:53;;;;;;;14.02;6.90;;;;;;;;;;10616811;27;20585;-54
2022/02/27 22:20:55;;;;;;;12.65;6.53;;;;;;;;;;10622756;27;20022;-54
2022/02/27 22:25:55;;;;;;;15.85;6.72;;;;;;;;;;10621855;27;20102;-55
2022/02/27 22:30:56;;;;;;;18.00;7.03;;;;;;;;;;10622485;27;20110;-58
2022/02/27 22:35:56;;;;;;;17.33;6.67;;;;;;;;;;10621392;27;20819;-58
2022/02/27 22:40:58;;;;;;;11.67;6.40;;;;;;;;;;10621489;27;20429;-57
2022/02/27 22:45:58;;;;;;;12.55;6.65;;;;;;;;;;10620679;27;20455;-58
2022/02/27 22:50:59;;;;;;;12.50;5.93;;;;;;;;;;10620751;27;20026;-58
2022/02/27 22:56:00;;;;;;;11.33;6.73;;;;;;;;;;10620179;27;20477;-58
2022/02/27 23:01:02;;;;;;;14.88;5.97;;;;;;;;;;10620368;27;20031;-56
2022/02/27 23:06:03;;;;;;;17.30;6.55;;;;;;;;;;10619916;27;20525;-58
2022/02/27 23:11:05;;;;;;;12.03;6.63;;;;;;;;;;10619344;27;20022;-58
2022/02/27 23:16:06;;;;;;;18.40;6.80;;;;;;;;;;10616484;27;20444;-57
2022/02/27 23:21:09;;;;;;;9.48;5.97;;;;;;;;;;10616525;27;20034;-56
2022/02/27 23:26:10;;;;;;;18.15;6.30;;;;;;;;;;10617683;27;20497;-57
2022/02/27 23:31:11;;;;;;;11.57;6.15;;;;;;;;;;10618265;27;20034;-54
2022/02/27 23:36:12;;;;;;;11.38;6.00;;;;;;;;;;10617043;27;20050;-59
2022/02/27 23:41:12;;;;;;;12.13;6.20;;;;;;;;;;10617967;27;20030;-59
2022/02/27 23:46:13;;;;;;;13.27;6.40;;;;;;;;;;10619873;27;20379;-59
2022/02/27 23:51:14;;;;;;;12.63;5.68;;;;;;;;;;10619375;27;20430;-53
2022/02/27 23:56:14;;;;;;;11.02;5.70;;;;;;;;;;10618407;27;20034;-57
